Hamilton, Nebraska
Current Conditions -  °F | °C
As of 10:15 AM on Saturday 20 Dec 2014 (Local Time) from KHJH Reporting Station
Moderate Fog Moderate Fog  
Wind Chill: 27°   Ceiling: 100
Heat Index: 27°   Visibility: 0mi
Dew Point: 26°   Wind: 0mph
Humidity: 95%   Direction: NA
Pressure: 30.11"   Gusts: NA
Location:  40.3936°N, 97.5387°W
Report Text: KHJH 201615Z AUTO 00000KT M1/4SM FZFG OVC001 M03/M03 A3011 RMK AO2 T10261033
Loading
Personal Weather Stations






























Interactive Weather Map New forecast layout! Learn more

10-Day Weather Forecast

Advertisements
Track Severe Weather on mobile